Time;durP1;ratioP1;P1;durP2;ratioP2;P2;SDS_P1;SDS_P2;PMS_P1;PMS_P2;Temp;Humidity;BMP_temperature;BMP_pressure;BME280_temperature;BME280_humidity;BME280_pressure;Samples;Min_cycle;Max_cycle;Signal;HPM_P1;HPM_P2
2022/01/14 00:01:38;;;;;;;13.20;7.03;;;;;;;8.33;75.98;102840.97;5101346;28;20173;-72
2022/01/14 00:04:04;;;;;;;11.60;8.17;;;;;;;7.84;77.71;102842.72;5101659;28;20192;-72
2022/01/14 00:06:30;;;;;;;11.27;7.43;;;;;;;7.92;76.66;102835.34;5101081;28;20545;-71
2022/01/14 00:09:03;;;;;;;14.23;6.90;;;;;;;7.88;77.22;102833.41;5098575;28;20381;-70
2022/01/14 00:11:30;;;;;;;12.97;6.97;;;;;;;8.33;77.09;102833.19;5081526;28;20171;-70
2022/01/14 00:14:08;;;;;;;17.70;7.57;;;;;;;7.89;77.91;102836.09;5080637;28;20426;-69
2022/01/14 00:16:34;;;;;;;11.53;6.73;;;;;;;7.93;77.36;102842.34;5080797;28;20418;-70
2022/01/14 00:18:59;;;;;;;10.67;7.03;;;;;;;7.67;79.14;102843.50;5094981;28;20397;-71
2022/01/14 00:21:26;;;;;;;10.90;6.03;;;;;;;11.62;79.86;102819.50;5084553;28;20187;-60
2022/01/14 00:24:03;;;;;;;10.37;7.70;;;;;;;10.51;68.88;102830.63;5080910;28;20519;-73
2022/01/14 00:31:42;;;;;;;12.70;7.60;;;;;;;8.43;76.28;102844.16;5083132;28;20414;-71
2022/01/14 00:34:41;;;;;;;13.60;7.53;;;;;;;8.55;76.20;102845.63;5098721;28;20446;-70
2022/01/14 00:37:07;;;;;;;12.23;7.00;;;;;;;8.30;76.79;102836.50;5098903;28;20278;-71
2022/01/14 00:39:32;;;;;;;17.80;7.67;;;;;;;7.98;77.98;102840.88;5100465;28;20243;-71
2022/01/14 00:41:58;;;;;;;12.30;6.80;;;;;;;8.30;76.45;102833.03;5101007;28;20557;-71
2022/01/14 00:44:23;;;;;;;11.60;7.00;;;;;;;7.94;78.85;102836.31;5082842;28;20175;-70
2022/01/14 00:46:49;;;;;;;12.03;7.30;;;;;;;7.87;78.51;102829.91;5091106;28;20177;-69
2022/01/14 00:49:16;;;;;;;9.20;6.33;;;;;;;7.99;77.92;102821.88;5080665;28;20169;-70
2022/01/14 00:51:41;;;;;;;13.80;7.07;;;;;;;8.29;76.52;102828.63;5064934;28;20467;-70
2022/01/14 00:54:08;;;;;;;9.53;7.40;;;;;;;8.60;75.32;102807.75;5079741;28;20445;-71
2022/01/14 00:56:46;;;;;;;14.83;7.50;;;;;;;8.40;76.70;102815.41;5083775;28;20446;-70
2022/01/14 00:59:14;;;;;;;14.23;7.90;;;;;;;8.13;78.13;102821.72;5080212;28;20472;-70
2022/01/14 01:01:49;;;;;;;13.27;7.10;;;;;;;8.51;76.33;102815.09;5080074;28;20386;-70
2022/01/14 01:04:20;;;;;;;12.60;7.73;;;;;;;8.26;77.77;102819.84;5079119;28;20499;-71
2022/01/14 01:06:47;;;;;;;14.40;7.93;;;;;;;8.21;77.74;102816.16;5098577;28;20426;-71
2022/01/14 01:09:15;;;;;;;19.57;7.37;;;;;;;8.25;77.13;102819.78;5099781;28;20450;-70
2022/01/14 01:11:47;;;;;;;10.73;6.70;;;;;;;8.23;77.04;102811.03;5079815;28;20518;-70
2022/01/14 01:14:28;;;;;;;10.70;7.40;;;;;;;8.25;78.28;102818.09;5079961;28;20404;-71
2022/01/14 01:16:54;;;;;;;10.97;7.20;;;;;;;8.18;77.94;102812.47;5080019;28;20401;-71
2022/01/14 01:19:19;;;;;;;10.10;7.27;;;;;;;8.11;78.82;102815.59;5099989;28;20410;-70
2022/01/14 01:21:44;;;;;;;17.17;7.40;;;;;;;7.82;78.55;102809.69;5099721;28;20208;-71
2022/01/14 01:24:11;;;;;;;13.20;7.77;;;;;;;8.27;78.19;102815.56;5099657;28;20168;-70
2022/01/14 01:26:39;;;;;;;16.20;7.40;;;;;;;7.93;78.28;102809.47;5081362;28;20586;-71
2022/01/14 01:31:37;;;;;;;11.60;7.63;;;;;;;8.25;78.18;102805.09;5079230;28;20419;-70
2022/01/14 01:34:06;;;;;;;14.13;7.30;;;;;;;7.88;78.53;102810.03;5078307;28;20480;-70
2022/01/14 01:36:32;;;;;;;12.30;6.77;;;;;;;7.93;79.02;102801.69;5096459;28;20412;-70
2022/01/14 01:38:57;;;;;;;9.43;6.43;;;;;;;7.64;80.21;102805.28;5099677;28;20425;-70
2022/01/14 01:41:22;;;;;;;12.07;8.30;;;;;;;8.23;77.77;102792.84;5099373;28;20211;-70
2022/01/14 01:43:51;;;;;;;14.97;8.97;;;;;;;8.54;76.15;102803.16;5095902;28;20255;-70
2022/01/14 01:46:21;;;;;;;12.73;7.00;;;;;;;8.25;77.77;102804.19;5079556;28;20204;-70
2022/01/14 01:48:51;;;;;;;10.47;6.00;;;;;;;7.84;79.78;102802.88;5079246;28;20822;-71
2022/01/14 01:51:17;;;;;;;10.60;6.60;;;;;;;8.26;77.03;102809.47;5081249;28;20408;-70
2022/01/14 01:53:43;;;;;;;8.80;6.40;;;;;;;7.78;79.58;102810.34;5082961;28;20429;-70
2022/01/14 01:56:08;;;;;;;11.73;6.90;;;;;;;8.23;77.82;102814.50;5118942;28;20407;-70
2022/01/14 01:58:33;;;;;;;15.13;6.80;;;;;;;8.30;77.29;102807.03;5120036;28;20398;-70
2022/01/14 02:00:59;;;;;;;13.77;6.87;;;;;;;7.92;78.77;102812.00;5119450;28;20163;-70
2022/01/14 02:03:24;;;;;;;11.40;6.70;;;;;;;7.88;79.46;102804.84;5119207;28;20244;-70
2022/01/14 02:05:50;;;;;;;10.23;6.23;;;;;;;7.54;80.10;102809.06;5117862;28;20168;-71
2022/01/14 02:08:15;;;;;;;9.60;5.70;;;;;;;7.66;79.99;102806.28;5101666;28;20179;-71
2022/01/14 02:10:41;;;;;;;8.73;5.67;;;;;;;7.87;78.78;102803.03;5119273;28;20246;-71
2022/01/14 02:13:06;;;;;;;10.47;6.50;;;;;;;8.36;76.91;102802.16;5119414;28;20191;-70
2022/01/14 02:18:41;;;;;;;9.20;5.50;;;;;;;7.88;78.88;102799.66;5100523;28;20591;-71
2022/01/14 02:24:06;;;;;;;16.07;6.33;;;;;;;8.01;78.17;102785.59;5099871;28;20426;-71
2022/01/14 02:26:31;;;;;;;8.97;5.90;;;;;;;8.18;78.40;102781.31;5099299;28;20389;-72
2022/01/14 02:28:56;;;;;;;11.30;6.30;;;;;;;7.97;79.46;102783.66;5098837;28;20394;-72
2022/01/14 02:31:22;;;;;;;11.33;5.33;;;;;;;8.07;78.86;102784.22;5098585;28;20160;-70
2022/01/14 02:33:47;;;;;;;10.00;5.53;;;;;;;8.20;77.93;102774.47;5098158;28;20482;-71
2022/01/14 02:36:13;;;;;;;9.83;5.33;;;;;;;7.99;79.18;102772.53;5100083;28;20534;-69
2022/01/14 02:38:38;;;;;;;13.33;6.27;;;;;;;8.15;78.82;102768.16;5098498;28;20207;-71
2022/01/14 02:41:03;;;;;;;13.17;5.90;;;;;;;8.18;77.65;102761.41;5098395;28;20182;-70
2022/01/14 02:43:29;;;;;;;10.07;5.53;;;;;;;8.37;78.61;102755.44;5098744;28;20161;-70
2022/01/14 02:45:56;;;;;;;11.53;6.30;;;;;;;8.34;79.02;102749.22;5114110;28;20190;-70
2022/01/14 02:48:24;;;;;;;10.70;5.70;;;;;;;8.04;78.86;102745.09;5118776;28;20171;-70
2022/01/14 02:51:01;;;;;;;12.47;6.43;;;;;;;8.03;79.13;102735.50;5119398;28;20433;-71
2022/01/14 02:56:04;;;;;;;17.40;6.10;;;;;;;8.27;78.45;102728.09;5101641;28;20438;-70
2022/01/14 02:58:31;;;;;;;7.93;5.70;;;;;;;7.98;79.34;102729.19;5098377;28;20385;-70
2022/01/14 03:01:04;;;;;;;11.93;6.07;;;;;;;7.68;80.10;102726.75;5098175;28;20389;-70
2022/01/14 03:03:31;;;;;;;9.40;6.53;;;;;;;7.74;80.94;102719.31;5098087;28;20413;-70
2022/01/14 03:05:56;;;;;;;9.60;5.90;;;;;;;8.02;80.02;102717.25;5081529;28;20521;-70
2022/01/14 03:08:22;;;;;;;9.13;6.03;;;;;;;7.57;81.01;102715.78;5098681;28;20497;-71
2022/01/14 03:10:51;;;;;;;12.17;6.57;;;;;;;7.68;81.40;102710.28;5081358;28;20188;-70
2022/01/14 03:13:16;;;;;;;19.70;6.37;;;;;;;8.26;78.66;102704.66;5097059;28;20474;-70
2022/01/14 03:15:41;;;;;;;10.53;5.90;;;;;;;8.01;78.85;102697.28;5105390;28;20464;-70
2022/01/14 03:18:07;;;;;;;13.00;6.40;;;;;;;7.93;79.86;102702.09;5080433;28;20187;-70
2022/01/14 03:20:48;;;;;;;13.33;6.50;;;;;;;7.98;79.71;102697.13;5097935;28;20179;-70
2022/01/14 03:23:15;;;;;;;11.03;5.97;;;;;;;7.80;79.25;102702.28;5098022;28;20176;-70
2022/01/14 03:25:49;;;;;;;7.60;6.53;;;;;;;7.83;79.34;102711.09;5110719;28;20471;-70
2022/01/14 03:28:18;;;;;;;11.77;6.73;;;;;;;7.78;79.82;102704.78;5118543;28;20411;-70
2022/01/14 03:30:43;;;;;;;14.07;6.60;;;;;;;7.63;79.47;102694.50;5118300;28;20424;-70
2022/01/14 03:33:09;;;;;;;11.23;6.80;;;;;;;7.79;79.37;102706.56;5118499;28;20441;-71
2022/01/14 03:35:34;;;;;;;10.00;6.30;;;;;;;7.74;79.97;102693.34;5109000;28;20192;-70
2022/01/14 03:38:00;;;;;;;8.90;6.47;;;;;;;7.89;78.98;102679.38;5101922;28;20207;-71
2022/01/14 03:40:26;;;;;;;14.67;6.40;;;;;;;8.08;78.86;102679.50;5102315;28;20272;-71
2022/01/14 03:42:51;;;;;;;18.17;7.00;;;;;;;8.26;77.72;102674.34;5101633;28;20178;-71
2022/01/14 03:45:17;;;;;;;13.07;7.73;;;;;;;7.93;79.19;102679.63;5110782;28;20734;-70
2022/01/14 03:47:42;;;;;;;10.67;6.80;;;;;;;7.71;79.99;102679.28;5121835;28;20601;-69
2022/01/14 03:50:08;;;;;;;10.13;7.03;;;;;;;7.73;79.47;102668.19;5104542;28;20182;-71
2022/01/14 03:52:33;;;;;;;9.03;6.50;;;;;;;7.88;79.32;102662.00;5108169;28;20487;-71
2022/01/14 03:54:58;;;;;;;10.90;5.43;;;;;;;7.95;79.10;102651.13;5090930;28;20470;-70
2022/01/14 03:57:24;;;;;;;11.63;7.27;;;;;;;7.79;79.08;102632.97;5081434;28;20249;-71
2022/01/14 03:59:50;;;;;;;16.43;8.93;;;;;;;7.67;79.60;102639.31;5081142;28;20177;-71
2022/01/14 04:02:15;;;;;;;13.33;6.30;;;;;;;8.01;78.83;102638.47;5081584;28;20168;-70
2022/01/14 04:04:40;;;;;;;12.47;7.40;;;;;;;7.62;80.21;102635.59;5081894;28;20523;-71
2022/01/14 04:07:06;;;;;;;9.93;7.03;;;;;;;7.55;79.18;102639.56;5080980;28;20250;-69
2022/01/14 04:09:36;;;;;;;16.33;8.10;;;;;;;7.72;80.10;102643.03;5081682;28;20424;-70
2022/01/14 04:12:02;;;;;;;13.17;6.97;;;;;;;7.90;78.98;102640.50;5080771;28;20193;-71
2022/01/14 04:16:53;;;;;;;13.83;7.33;;;;;;;7.75;78.71;102645.81;5101544;28;20411;-70
2022/01/14 04:19:18;;;;;;;14.53;7.60;;;;;;;7.72;79.06;102647.34;5101220;28;20200;-70
2022/01/14 04:21:44;;;;;;;11.23;6.83;;;;;;;8.00;77.72;102649.66;5100918;28;20397;-70
2022/01/14 04:24:10;;;;;;;10.30;7.00;;;;;;;7.96;77.19;102647.72;5096064;28;20173;-71
2022/01/14 04:26:35;;;;;;;11.30;7.40;;;;;;;7.98;77.82;102648.66;5063354;28;20169;-70
2022/01/14 04:29:00;;;;;;;10.10;7.07;;;;;;;8.15;77.50;102661.66;5080679;28;20196;-70
2022/01/14 04:31:26;;;;;;;14.77;7.40;;;;;;;7.72;78.00;102653.41;5080899;28;20176;-69
2022/01/14 04:33:51;;;;;;;13.20;7.27;;;;;;;8.14;76.58;102660.72;5069453;28;20220;-70
2022/01/14 04:36:16;;;;;;;12.93;7.30;;;;;;;7.84;77.16;102660.06;5082208;28;20289;-70
2022/01/14 04:38:42;;;;;;;13.43;7.23;;;;;;;7.91;78.25;102654.38;5067703;28;20225;-70
2022/01/14 04:41:09;;;;;;;11.43;7.17;;;;;;;7.84;76.42;102655.75;5084081;28;20184;-71
2022/01/14 04:43:34;;;;;;;14.47;7.63;;;;;;;8.11;76.39;102637.22;5103191;28;20168;-70
2022/01/14 04:48:25;;;;;;;14.97;7.07;;;;;;;7.99;76.79;102640.06;5102610;28;20180;-70
2022/01/14 04:50:52;;;;;;;14.13;7.57;;;;;;;7.95;77.84;102638.13;5103024;28;20255;-70
2022/01/14 04:53:17;;;;;;;11.43;8.03;;;;;;;7.99;76.91;102631.41;5089759;28;20476;-71
2022/01/14 04:55:43;;;;;;;10.83;6.90;;;;;;;7.90;76.70;102626.59;5087918;28;20430;-70
2022/01/14 04:58:08;;;;;;;19.37;7.63;;;;;;;7.84;77.12;102636.69;5088240;28;20202;-70
2022/01/14 05:00:35;;;;;;;15.80;7.07;;;;;;;8.18;75.96;102633.22;5083328;28;20558;-70
2022/01/14 05:03:01;;;;;;;11.07;6.90;;;;;;;8.13;75.94;102638.16;5080633;28;20436;-70
2022/01/14 05:05:29;;;;;;;13.03;7.50;;;;;;;7.71;76.67;102635.16;5080129;28;20415;-70
2022/01/14 05:07:55;;;;;;;11.67;7.20;;;;;;;8.05;75.90;102637.78;5082043;28;20164;-70
2022/01/14 05:13:06;;;;;;;8.17;6.57;;;;;;;7.72;76.93;102637.84;5062536;28;20227;-70
2022/01/14 05:15:31;;;;;;;12.90;6.80;;;;;;;8.01;76.03;102640.16;5094703;28;20666;-70
2022/01/14 05:17:57;;;;;;;11.40;7.17;;;;;;;7.92;76.69;102644.06;5095002;28;20177;-70
2022/01/14 05:20:22;;;;;;;14.50;6.77;;;;;;;8.12;75.63;102643.28;5089325;28;20384;-70
2022/01/14 05:22:48;;;;;;;9.93;6.30;;;;;;;8.22;74.53;102632.56;5079422;28;20176;-69
2022/01/14 05:25:14;;;;;;;14.10;6.57;;;;;;;8.51;75.58;102634.03;5079555;28;20181;-70
2022/01/14 05:27:41;;;;;;;13.47;6.87;;;;;;;7.85;75.65;102630.72;5080109;28;20165;-70
2022/01/14 05:30:08;;;;;;;13.07;6.40;;;;;;;7.93;76.37;102631.97;5080892;28;20488;-71
2022/01/14 05:32:34;;;;;;;10.43;5.80;;;;;;;7.98;76.21;102634.81;5093095;28;20460;-70
2022/01/14 05:35:00;;;;;;;12.63;6.83;;;;;;;7.68;78.28;102630.69;5079982;28;20366;-70
2022/01/14 05:37:26;;;;;;;11.23;6.23;;;;;;;7.94;76.23;102636.34;5088066;28;20418;-70
2022/01/14 05:39:51;;;;;;;11.30;6.33;;;;;;;7.96;75.79;102637.31;5085990;28;20473;-70
2022/01/14 05:42:17;;;;;;;13.27;6.47;;;;;;;8.11;75.71;102626.81;5083517;28;20204;-71
2022/01/14 05:44:42;;;;;;;14.20;6.47;;;;;;;8.39;74.84;102631.69;5096004;28;20186;-70
2022/01/14 05:47:07;;;;;;;15.67;8.60;;;;;;;7.99;76.57;102634.88;5095869;28;20423;-70
2022/01/14 05:49:33;;;;;;;14.40;7.90;;;;;;;8.03;77.39;102639.41;5079479;28;20211;-70
2022/01/14 05:51:59;;;;;;;8.20;5.60;;;;;;;7.95;77.00;102634.66;5078728;28;20529;-70
2022/01/14 05:54:24;;;;;;;13.43;5.70;;;;;;;8.02;76.49;102642.81;5087352;28;20203;-70
2022/01/14 05:56:50;;;;;;;13.20;6.50;;;;;;;8.25;75.76;102641.41;5082764;28;20263;-70
2022/01/14 05:59:16;;;;;;;10.63;5.80;;;;;;;8.13;76.17;102650.28;5080942;28;20173;-71
2022/01/14 06:01:42;;;;;;;12.80;5.77;;;;;;;8.27;75.48;102651.88;5086127;28;20423;-69
2022/01/14 06:04:07;;;;;;;14.53;5.87;;;;;;;7.93;77.58;102652.75;5069059;28;20514;-70
2022/01/14 06:06:34;;;;;;;15.63;5.60;;;;;;;7.59;78.13;102656.19;5096555;28;20453;-69
2022/01/14 06:08:59;;;;;;;10.67;5.63;;;;;;;8.11;77.08;102658.00;5092600;28;20453;-69
2022/01/14 06:11:25;;;;;;;9.63;5.30;;;;;;;7.71;78.61;102662.03;5079707;28;20397;-71
2022/01/14 06:13:51;;;;;;;17.33;5.77;;;;;;;8.13;77.36;102651.16;5087808;28;20217;-70
2022/01/14 06:16:16;;;;;;;9.37;5.33;;;;;;;7.83;nan;102642.69;5066346;28;20187;-69
2022/01/14 06:18:42;;;;;;;12.13;5.83;;;;;;;8.01;77.84;102641.06;5064499;28;20180;-70
2022/01/14 06:21:08;;;;;;;11.23;6.00;;;;;;;8.12;77.03;102643.28;5082349;28;20184;-72
2022/01/14 06:23:33;;;;;;;15.93;6.30;;;;;;;7.73;79.77;102646.53;5089749;28;20187;-70
2022/01/14 06:25:58;;;;;;;13.03;6.00;;;;;;;7.98;78.34;102640.00;5097335;28;20279;-70
2022/01/14 06:28:24;;;;;;;13.93;6.23;;;;;;;7.76;79.38;102650.16;5090269;28;20500;-69
2022/01/14 06:30:49;;;;;;;10.90;5.50;;;;;;;7.52;80.31;102648.88;5098209;28;20561;-70
2022/01/14 06:33:15;;;;;;;14.57;5.80;;;;;;;8.25;77.68;102646.59;5098528;28;20287;-70
2022/01/14 06:35:40;;;;;;;11.53;5.20;;;;;;;7.82;78.35;102652.22;5096647;28;20266;-70
2022/01/14 06:38:05;;;;;;;15.53;6.60;;;;;;;8.02;78.63;102648.00;5098499;28;20229;-70
2022/01/14 06:40:31;;;;;;;17.07;6.00;;;;;;;7.83;78.22;102632.31;5098263;28;20180;-70
2022/01/14 06:42:57;;;;;;;11.83;5.77;;;;;;;7.46;80.00;102638.19;5091386;28;20537;-70
2022/01/14 06:45:22;;;;;;;15.17;6.33;;;;;;;7.72;78.71;102637.84;5102338;28;20426;-71
2022/01/14 06:47:49;;;;;;;16.30;6.17;;;;;;;7.93;78.31;102650.16;5102301;28;20172;-70
2022/01/14 06:50:14;;;;;;;13.40;5.87;;;;;;;7.74;77.97;102646.59;5098965;28;20541;-71
2022/01/14 06:52:40;;;;;;;18.37;6.27;;;;;;;7.93;77.55;102645.84;5085975;28;20453;-69
2022/01/14 06:55:06;;;;;;;10.57;5.40;;;;;;;8.07;77.68;102646.53;5062299;28;20614;-70
2022/01/14 06:57:31;;;;;;;21.57;7.57;;;;;;;7.86;78.11;102646.34;5085474;28;20180;-70
2022/01/14 06:59:57;;;;;;;11.87;5.53;;;;;;;7.85;78.54;102649.75;5097581;28;20404;-71
2022/01/14 07:02:22;;;;;;;10.90;5.47;;;;;;;8.09;77.52;102639.72;5079868;28;20219;-70
2022/01/14 07:04:47;;;;;;;13.50;5.17;;;;;;;7.53;78.87;102654.16;5078541;28;20446;-69
2022/01/14 07:07:13;;;;;;;14.30;6.53;;;;;;;7.98;78.63;102656.47;5079062;28;20177;-70
2022/01/14 07:09:55;;;;;;;19.30;7.97;;;;;;;8.12;77.34;102659.78;5084446;28;20192;-70
2022/01/14 07:12:22;;;;;;;17.60;5.73;;;;;;;7.92;78.87;102667.44;5092875;28;20211;-70
2022/01/14 07:14:48;;;;;;;14.80;6.83;;;;;;;7.57;79.29;102679.44;5082846;28;20386;-71
2022/01/14 07:17:13;;;;;;;11.87;6.10;;;;;;;7.72;79.31;102686.28;5082841;28;20717;-70
2022/01/14 07:19:38;;;;;;;14.93;6.83;;;;;;;8.01;77.56;102685.22;5082118;28;20501;-70
2022/01/14 07:22:03;;;;;;;20.20;8.20;;;;;;;8.15;76.29;102685.03;5088152;28;20168;-69
2022/01/14 07:24:29;;;;;;;14.87;6.00;;;;;;;7.71;77.95;102693.19;5102320;28;20172;-70
2022/01/14 07:26:54;;;;;;;14.23;6.47;;;;;;;7.77;78.33;102700.41;5102390;28;20180;-70
2022/01/14 07:29:20;;;;;;;15.63;6.57;;;;;;;8.12;76.34;102695.25;5100669;28;20204;-70
2022/01/14 07:31:45;;;;;;;16.10;6.63;;;;;;;7.96;77.30;102694.47;5081699;28;20183;-71
2022/01/14 07:34:13;;;;;;;10.60;5.50;;;;;;;8.42;75.58;102691.59;5096643;28;20195;-69
2022/01/14 07:36:39;;;;;;;9.87;6.40;;;;;;;7.72;78.98;102692.34;5081916;28;20176;-69
2022/01/14 07:39:06;;;;;;;16.47;6.10;;;;;;;7.93;78.30;102704.69;5090192;28;20831;-69
2022/01/14 07:41:32;;;;;;;18.13;7.43;;;;;;;8.23;75.83;102696.69;5078067;28;20569;-70
2022/01/14 07:43:57;;;;;;;15.27;6.17;;;;;;;8.10;76.68;102700.34;5091581;28;20427;-70
2022/01/14 07:46:23;;;;;;;15.53;7.60;;;;;;;7.80;78.16;102702.28;5082576;28;20680;-69
2022/01/14 07:48:48;;;;;;;17.63;6.10;;;;;;;7.89;77.33;102711.44;5070855;28;20204;-70
2022/01/14 07:51:13;;;;;;;17.60;7.10;;;;;;;8.34;76.72;102710.25;5082394;28;20418;-70
2022/01/14 07:53:40;;;;;;;15.67;6.80;;;;;;;8.17;76.95;102698.97;5064062;28;20295;-71
2022/01/14 07:56:07;;;;;;;13.40;6.20;;;;;;;7.62;79.10;102703.06;5089648;28;20197;-69
2022/01/14 07:58:33;;;;;;;15.40;6.87;;;;;;;7.76;78.87;102701.22;5096230;28;20500;-70
2022/01/14 08:00:58;;;;;;;18.60;7.90;;;;;;;8.24;76.35;102691.56;5099822;28;20428;-70
2022/01/14 08:03:24;;;;;;;17.23;6.57;;;;;;;7.88;77.49;102695.78;5102023;28;20414;-69
2022/01/14 08:05:50;;;;;;;16.93;6.50;;;;;;;7.98;76.93;102695.41;5089742;28;20185;-68
2022/01/14 08:08:16;;;;;;;17.47;6.67;;;;;;;8.07;77.38;102703.69;5081537;28;20177;-70
2022/01/14 08:10:41;;;;;;;17.27;6.50;;;;;;;8.06;77.63;102698.41;5087297;28;20397;-70
2022/01/14 08:13:06;;;;;;;14.93;6.57;;;;;;;7.86;77.62;102700.88;5098207;28;20218;-70
2022/01/14 08:15:32;;;;;;;13.07;6.37;;;;;;;8.15;77.38;102703.22;5092081;28;20181;-71
2022/01/14 08:17:59;;;;;;;14.33;6.40;;;;;;;7.86;77.99;102707.75;5081566;28;20195;-69
2022/01/14 08:20:24;;;;;;;12.43;6.27;;;;;;;7.93;77.76;102709.91;5095735;28;20557;-70
2022/01/14 08:22:50;;;;;;;11.63;5.90;;;;;;;7.90;77.98;102710.63;5083477;28;20388;-70
2022/01/14 08:25:15;;;;;;;15.70;6.50;;;;;;;8.16;77.65;102707.56;5101529;28;20196;-70
2022/01/14 08:27:40;;;;;;;13.70;5.67;;;;;;;8.04;77.66;102708.75;5080751;28;20196;-71
2022/01/14 08:30:07;;;;;;;14.03;6.70;;;;;;;8.15;77.45;102705.81;5080657;28;20234;-70
2022/01/14 08:32:32;;;;;;;21.10;7.23;;;;;;;8.57;75.99;102708.81;5094501;28;20224;-72
2022/01/14 08:34:58;;;;;;;21.43;6.73;;;;;;;7.64;78.21;102716.13;5100955;28;20445;-71
2022/01/14 08:37:23;;;;;;;13.90;5.70;;;;;;;7.97;78.74;102714.44;5100813;28;20429;-70
2022/01/14 08:39:48;;;;;;;7.17;5.80;;;;;;;8.01;80.01;102718.06;5098249;28;20229;-55
2022/01/14 08:42:14;;;;;;;6.70;4.97;;;;;;;13.62;72.63;102691.03;5085745;28;20180;-57
2022/01/14 08:44:40;;;;;;;18.57;6.03;;;;;;;10.49;72.12;102714.94;5085829;28;20557;-59
2022/01/14 08:47:09;;;;;;;19.77;6.10;;;;;;;9.78;73.44;102721.44;5092545;28;20173;-53
2022/01/14 08:49:35;;;;;;;10.53;5.33;;;;;;;10.63;74.38;102718.13;5085593;28;20851;-53
2022/01/14 08:52:01;;;;;;;19.70;6.60;;;;;;;11.22;70.59;102721.34;5096513;28;20452;-57
2022/01/14 08:54:26;;;;;;;18.53;6.07;;;;;;;10.68;72.48;102717.47;5063294;28;20469;-57
2022/01/14 08:56:51;;;;;;;10.30;6.17;;;;;;;9.24;73.02;102724.19;5095172;28;20516;-70
2022/01/14 08:59:17;;;;;;;16.20;6.97;;;;;;;8.28;77.13;102718.63;5083350;28;20184;-68
2022/01/14 09:01:43;;;;;;;17.70;6.77;;;;;;;8.16;79.34;102724.06;5080440;28;20188;-70
2022/01/14 09:04:09;;;;;;;12.70;6.77;;;;;;;7.79;80.25;102718.66;5079971;28;20267;-70
2022/01/14 09:06:34;;;;;;;17.33;7.53;;;;;;;7.62;81.55;102729.03;5070990;28;20234;-72
2022/01/14 09:08:59;;;;;;;10.63;6.10;;;;;;;7.58;82.04;102733.16;5091327;28;20582;-73
2022/01/14 09:11:25;;;;;;;17.37;7.17;;;;;;;7.60;82.21;102735.84;5082059;28;20189;-72
2022/01/14 09:13:50;;;;;;;22.70;8.23;;;;;;;7.81;82.32;102724.84;5087510;28;20219;-72
2022/01/14 09:16:18;;;;;;;18.57;7.60;;;;;;;7.87;81.69;102735.53;5086872;28;20207;-71
2022/01/14 09:18:44;;;;;;;10.90;7.07;;;;;;;7.72;82.83;102736.50;5096161;28;20191;-68
2022/01/14 09:21:09;;;;;;;14.20;7.00;;;;;;;7.78;82.33;102729.84;5090580;28;20413;-71
2022/01/14 09:23:36;;;;;;;17.10;7.00;;;;;;;7.43;83.82;102727.16;5079523;28;20177;-70
2022/01/14 09:26:02;;;;;;;15.07;7.20;;;;;;;7.71;82.62;102739.91;5083463;28;20208;-69
2022/01/14 09:28:28;;;;;;;17.90;6.90;;;;;;;7.80;81.53;102742.09;5091110;28;20446;-70
2022/01/14 09:30:53;;;;;;;16.47;7.80;;;;;;;7.74;81.84;102741.78;5097812;28;20190;-71
2022/01/14 09:33:20;;;;;;;18.33;6.80;;;;;;;7.59;83.44;102749.66;5077268;28;20557;-71
2022/01/14 09:35:46;;;;;;;20.40;7.73;;;;;;;7.48;83.87;102741.28;5092003;28;20216;-72
2022/01/14 09:38:12;;;;;;;13.27;7.00;;;;;;;7.53;83.76;102737.19;5097306;28;20450;-70
2022/01/14 09:40:41;;;;;;;19.00;7.90;;;;;;;7.43;84.58;102737.53;5091948;28;20406;-71
2022/01/14 09:43:07;;;;;;;20.90;9.70;;;;;;;7.49;83.75;102735.25;5081212;28;20184;-71
2022/01/14 09:45:34;;;;;;;16.93;6.83;;;;;;;7.98;81.63;102729.19;5063510;28;20802;-70
2022/01/14 09:48:00;;;;;;;15.27;7.10;;;;;;;7.41;84.04;102739.13;5087558;28;20655;-70
2022/01/14 09:50:26;;;;;;;13.83;7.20;;;;;;;7.58;84.26;102735.75;5091209;28;20423;-70
2022/01/14 09:52:52;;;;;;;12.43;7.30;;;;;;;7.53;84.77;102739.78;5083606;28;20228;-71
2022/01/14 09:55:19;;;;;;;19.63;7.30;;;;;;;7.79;84.21;102736.81;5081842;28;20471;-70
2022/01/14 09:57:44;;;;;;;14.80;6.23;;;;;;;7.46;85.31;102742.00;5091062;28;20398;-70
2022/01/14 10:00:10;;;;;;;16.97;7.03;;;;;;;7.64;84.61;102736.91;5089471;28;20412;-70
2022/01/14 10:02:38;;;;;;;14.83;6.80;;;;;;;7.89;84.68;102736.53;5079843;28;20204;-70
2022/01/14 10:05:05;;;;;;;17.03;7.70;;;;;;;7.40;85.79;102738.25;5086545;28;20183;-70
2022/01/14 10:07:32;;;;;;;18.10;7.43;;;;;;;7.50;84.48;102741.34;5091670;28;20417;-70
2022/01/14 10:09:59;;;;;;;15.27;6.07;;;;;;;7.28;86.90;102741.84;5085391;28;20718;-71
2022/01/14 10:12:26;;;;;;;14.80;6.93;;;;;;;7.79;84.68;102742.03;5091813;28;20433;-70
2022/01/14 10:15:10;;;;;;;10.27;6.90;;;;;;;7.32;86.18;102755.09;5100618;28;20658;-71
2022/01/14 10:17:38;;;;;;;10.63;6.50;;;;;;;7.54;85.83;102759.75;5092820;28;20488;-71
2022/01/14 10:20:05;;;;;;;12.50;6.87;;;;;;;7.55;86.46;102752.84;5088019;28;20423;-71
2022/01/14 10:22:34;;;;;;;11.83;6.40;;;;;;;7.46;85.84;102767.94;5085955;28;20512;-71
2022/01/14 10:25:03;;;;;;;13.67;6.90;;;;;;;7.55;86.18;102763.22;5099059;28;20814;-70
2022/01/14 10:27:52;;;;;;;14.20;7.50;;;;;;;7.75;86.49;102760.03;5082839;28;20449;-70
2022/01/14 10:30:31;;;;;;;16.77;6.87;;;;;;;7.52;86.45;102764.00;5081340;28;20433;-70
2022/01/14 10:33:01;;;;;;;15.63;7.10;;;;;;;7.61;85.96;102757.50;5080744;28;20480;-70
2022/01/14 10:35:29;;;;;;;13.17;7.40;;;;;;;7.68;85.84;102757.91;5084521;28;20442;-71
2022/01/14 10:37:58;;;;;;;13.23;7.50;;;;;;;7.47;87.83;102756.72;5089447;28;20415;-71
2022/01/14 10:40:25;;;;;;;11.37;6.83;;;;;;;7.61;86.89;102757.50;5079212;28;20880;-70
2022/01/14 10:42:52;;;;;;;16.43;8.27;;;;;;;7.74;86.82;102755.66;5078674;28;20430;-70
2022/01/14 10:45:20;;;;;;;11.23;7.13;;;;;;;7.43;87.89;102753.09;5061463;28;20515;-70
2022/01/14 10:48:02;;;;;;;15.23;8.23;;;;;;;7.33;88.44;102740.41;5080017;28;20405;-71
2022/01/14 10:50:31;;;;;;;20.27;8.37;;;;;;;7.95;86.02;102747.22;5078593;28;20451;-71
2022/01/14 10:52:56;;;;;;;14.37;9.13;;;;;;;7.99;85.68;102748.28;5094818;28;20482;-70
2022/01/14 10:55:47;;;;;;;15.53;8.33;;;;;;;7.61;86.36;102745.41;5091756;28;20700;-70
2022/01/14 10:58:43;;;;;;;17.80;7.67;;;;;;;7.98;85.71;102747.38;5086525;28;20701;-70
2022/01/14 11:01:22;;;;;;;18.00;9.10;;;;;;;7.57;87.28;102752.13;5094013;28;20505;-69
2022/01/14 11:03:52;;;;;;;18.60;8.53;;;;;;;7.97;85.68;102752.47;5078632;28;20563;-68
2022/01/14 11:06:20;;;;;;;22.23;9.17;;;;;;;7.99;85.85;102736.16;5084246;28;20517;-70
2022/01/14 11:08:47;;;;;;;21.33;10.10;;;;;;;7.75;86.63;102741.88;5087709;28;20454;-69
2022/01/14 11:11:14;;;;;;;21.90;9.57;;;;;;;8.08;84.99;102734.06;5078571;28;20392;-71
2022/01/14 11:13:39;;;;;;;11.97;8.77;;;;;;;8.04;86.01;102731.22;5084206;28;20461;-70
2022/01/14 11:16:05;;;;;;;12.60;8.10;;;;;;;7.74;86.98;102739.19;5098309;28;20497;-69
2022/01/14 11:18:30;;;;;;;18.77;9.53;;;;;;;7.68;87.02;102724.16;5079815;28;20203;-69
2022/01/14 11:23:39;;;;;;;16.20;8.53;;;;;;;8.12;85.79;102742.00;5089052;28;20232;-70
2022/01/14 11:26:06;;;;;;;9.63;8.33;;;;;;;7.91;86.40;102734.88;5062104;28;20429;-70
2022/01/14 11:28:35;;;;;;;18.97;9.60;;;;;;;7.93;86.00;102735.88;5074141;28;20187;-71
2022/01/14 11:31:01;;;;;;;14.13;8.70;;;;;;;7.85;86.30;102745.84;5098827;28;20384;-70
2022/01/14 11:33:43;;;;;;;15.37;8.53;;;;;;;7.93;86.85;102734.16;5071679;28;20444;-71
2022/01/14 11:36:09;;;;;;;13.33;9.20;;;;;;;7.95;87.50;102744.63;5080832;28;20177;-70
2022/01/14 11:38:45;;;;;;;12.10;8.47;;;;;;;7.82;86.65;102748.28;5077577;28;20406;-71
2022/01/14 11:41:17;;;;;;;11.00;8.40;;;;;;;7.94;86.12;102742.81;5081270;28;20700;-71
2022/01/14 11:43:54;;;;;;;9.50;7.50;;;;;;;8.10;86.31;102747.13;5077713;28;20423;-71
2022/01/14 11:46:31;;;;;;;14.27;8.60;;;;;;;8.11;86.45;102748.03;5078349;28;20389;-73
2022/01/14 11:48:58;;;;;;;10.90;7.67;;;;;;;7.95;87.23;102733.34;5079229;28;20449;-74
2022/01/14 11:51:23;;;;;;;15.80;8.70;;;;;;;8.19;85.50;102733.72;5067670;28;20443;-73
2022/01/14 11:53:51;;;;;;;13.67;9.03;;;;;;;7.94;87.22;102740.22;5124194;28;20967;-71